sensor_id;sensor_type;location;lat;lon;timestamp;pressure;altitude;pressure_sealevel;temperature;humidity
18509;BME280;9383;50.928;12.116;2023-02-04T00:01:52;99480.69;;;4.37;98.77
18509;BME280;9383;50.928;12.116;2023-02-04T00:04:19;99483.31;;;4.35;98.54
18509;BME280;9383;50.928;12.116;2023-02-04T00:06:46;99497.31;;;4.34;98.96
18509;BME280;9383;50.928;12.116;2023-02-04T00:09:12;99492.94;;;4.33;98.78
18509;BME280;9383;50.928;12.116;2023-02-04T00:11:42;99499.94;;;4.30;99.99
18509;BME280;9383;50.928;12.116;2023-02-04T00:14:09;99504.28;;;4.26;100.00
18509;BME280;9383;50.928;12.116;2023-02-04T00:16:36;99508.66;;;4.24;100.00
18509;BME280;9383;50.928;12.116;2023-02-04T00:19:02;99521.81;;;4.21;100.00
18509;BME280;9383;50.928;12.116;2023-02-04T00:21:29;99515.66;;;4.17;100.00
18509;BME280;9383;50.928;12.116;2023-02-04T00:23:55;99536.66;;;4.14;100.00
18509;BME280;9383;50.928;12.116;2023-02-04T00:26:22;99531.41;;;4.14;100.00
18509;BME280;9383;50.928;12.116;2023-02-04T00:28:48;99530.56;;;4.12;100.00
18509;BME280;9383;50.928;12.116;2023-02-04T00:31:15;99541.91;;;4.08;100.00
18509;BME280;9383;50.928;12.116;2023-02-04T00:33:41;99554.13;;;4.06;100.00
18509;BME280;9383;50.928;12.116;2023-02-04T00:36:09;99560.25;;;4.03;100.00
18509;BME280;9383;50.928;12.116;2023-02-04T00:38:35;99556.75;;;4.01;100.00
18509;BME280;9383;50.928;12.116;2023-02-04T00:41:02;99558.50;;;3.99;100.00
18509;BME280;9383;50.928;12.116;2023-02-04T00:43:28;99562.00;;;3.98;100.00
18509;BME280;9383;50.928;12.116;2023-02-04T00:45:55;99561.13;;;3.98;100.00
18509;BME280;9383;50.928;12.116;2023-02-04T00:48:21;99576.00;;;3.97;100.00
18509;BME280;9383;50.928;12.116;2023-02-04T00:50:48;99585.63;;;3.95;100.00
18509;BME280;9383;50.928;12.116;2023-02-04T00:53:14;99608.34;;;3.94;100.00
18509;BME280;9383;50.928;12.116;2023-02-04T00:55:41;99659.03;;;3.87;100.00
18509;BME280;9383;50.928;12.116;2023-02-04T00:58:09;99669.34;;;3.50;100.00
18509;BME280;9383;50.928;12.116;2023-02-04T01:00:35;99690.91;;;3.07;100.00
18509;BME280;9383;50.928;12.116;2023-02-04T01:03:02;99694.13;;;2.73;100.00
18509;BME280;9383;50.928;12.116;2023-02-04T01:05:28;99704.41;;;2.53;100.00
18509;BME280;9383;50.928;12.116;2023-02-04T01:07:55;99712.94;;;2.39;100.00
18509;BME280;9383;50.928;12.116;2023-02-04T01:10:21;99705.03;;;2.32;100.00
18509;BME280;9383;50.928;12.116;2023-02-04T01:12:48;99713.72;;;2.28;100.00
18509;BME280;9383;50.928;12.116;2023-02-04T01:15:14;99711.06;;;2.24;100.00
18509;BME280;9383;50.928;12.116;2023-02-04T01:17:41;99735.44;;;2.22;100.00
18509;BME280;9383;50.928;12.116;2023-02-04T01:20:09;99739.81;;;2.21;100.00
18509;BME280;9383;50.928;12.116;2023-02-04T01:22:40;99748.50;;;2.20;100.00
18509;BME280;9383;50.928;12.116;2023-02-04T01:25:07;99756.34;;;2.19;100.00
18509;BME280;9383;50.928;12.116;2023-02-04T01:27:33;99753.69;;;2.16;100.00
18509;BME280;9383;50.928;12.116;2023-02-04T01:29:59;99758.94;;;2.16;100.00
18509;BME280;9383;50.928;12.116;2023-02-04T01:32:26;99765.00;;;2.15;100.00
18509;BME280;9383;50.928;12.116;2023-02-04T01:34:53;99772.81;;;2.10;100.00
18509;BME280;9383;50.928;12.116;2023-02-04T01:37:19;99779.72;;;2.08;100.00
18509;BME280;9383;50.928;12.116;2023-02-04T01:39:46;99788.47;;;2.08;100.00
18509;BME280;9383;50.928;12.116;2023-02-04T01:42:12;99791.06;;;2.05;100.00
18509;BME280;9383;50.928;12.116;2023-02-04T01:44:39;99792.78;;;2.03;100.00
18509;BME280;9383;50.928;12.116;2023-02-04T01:47:06;99797.06;;;2.01;100.00
18509;BME280;9383;50.928;12.116;2023-02-04T01:49:32;99803.16;;;2.00;100.00
18509;BME280;9383;50.928;12.116;2023-02-04T01:51:59;99813.63;;;1.99;100.00
18509;BME280;9383;50.928;12.116;2023-02-04T01:54:27;99815.34;;;1.96;100.00
18509;BME280;9383;50.928;12.116;2023-02-04T01:56:54;99820.53;;;1.95;100.00
18509;BME280;9383;50.928;12.116;2023-02-04T01:59:21;99816.13;;;1.92;100.00
18509;BME280;9383;50.928;12.116;2023-02-04T02:01:50;99829.22;;;1.92;100.00
18509;BME280;9383;50.928;12.116;2023-02-04T02:04:28;99832.69;;;1.91;100.00
18509;BME280;9383;50.928;12.116;2023-02-04T02:06:57;99846.66;;;1.92;100.00
18509;BME280;9383;50.928;12.116;2023-02-04T02:09:26;99857.13;;;1.92;100.00
18509;BME280;9383;50.928;12.116;2023-02-04T02:11:54;99864.06;;;1.91;100.00
18509;BME280;9383;50.928;12.116;2023-02-04T02:14:21;99866.69;;;1.91;100.00
18509;BME280;9383;50.928;12.116;2023-02-04T02:16:47;99877.13;;;1.91;100.00
18509;BME280;9383;50.928;12.116;2023-02-04T02:19:28;99889.34;;;1.91;100.00
18509;BME280;9383;50.928;12.116;2023-02-04T02:22:38;99893.69;;;1.90;100.00
18509;BME280;9383;50.928;12.116;2023-02-04T02:25:13;99910.28;;;1.91;100.00
18509;BME280;9383;50.928;12.116;2023-02-04T02:27:40;99918.13;;;1.91;100.00
18509;BME280;9383;50.928;12.116;2023-02-04T02:30:09;99918.13;;;1.91;100.00
18509;BME280;9383;50.928;12.116;2023-02-04T02:32:37;99926.81;;;1.90;100.00
18509;BME280;9383;50.928;12.116;2023-02-04T02:35:04;99932.88;;;1.89;100.00
18509;BME280;9383;50.928;12.116;2023-02-04T02:37:32;99945.03;;;1.87;100.00
18509;BME280;9383;50.928;12.116;2023-02-04T02:39:58;99950.28;;;1.87;100.00
18509;BME280;9383;50.928;12.116;2023-02-04T02:42:25;99952.84;;;1.83;100.00
18509;BME280;9383;50.928;12.116;2023-02-04T02:44:51;99949.34;;;1.81;100.00
18509;BME280;9383;50.928;12.116;2023-02-04T02:47:20;99956.28;;;1.79;100.00
18509;BME280;9383;50.928;12.116;2023-02-04T02:49:50;99966.66;;;1.76;100.00
18509;BME280;9383;50.928;12.116;2023-02-04T02:52:17;99963.09;;;1.71;100.00
18509;BME280;9383;50.928;12.116;2023-02-04T02:54:44;99963.03;;;1.68;100.00
18509;BME280;9383;50.928;12.116;2023-02-04T02:57:17;99979.53;;;1.65;100.00
18509;BME280;9383;50.928;12.116;2023-02-04T02:59:45;99979.47;;;1.61;100.00
18509;BME280;9383;50.928;12.116;2023-02-04T03:02:15;99979.41;;;1.58;100.00
18509;BME280;9383;50.928;12.116;2023-02-04T03:04:46;99988.97;;;1.56;100.00
18509;BME280;9383;50.928;12.116;2023-02-04T03:07:15;99984.53;;;1.53;100.00
18509;BME280;9383;50.928;12.116;2023-02-04T03:09:43;99998.50;;;1.53;100.00
18509;BME280;9383;50.928;12.116;2023-02-04T03:12:10;100000.19;;;1.50;100.00
18509;BME280;9383;50.928;12.116;2023-02-04T03:14:37;99994.91;;;1.47;100.00
18509;BME280;9383;50.928;12.116;2023-02-04T03:17:06;100003.50;;;1.43;100.00
18509;BME280;9383;50.928;12.116;2023-02-04T03:19:34;100015.63;;;1.37;100.00
18509;BME280;9383;50.928;12.116;2023-02-04T03:22:02;99952.84;;;0.90;100.00
18509;BME280;9383;50.928;12.116;2023-02-04T03:24:34;100023.25;;;1.28;100.00
18509;BME280;9383;50.928;12.116;2023-02-04T03:27:01;100033.59;;;1.23;100.00
18509;BME280;9383;50.928;12.116;2023-02-04T03:29:28;100042.28;;;1.21;100.00
18509;BME280;9383;50.928;12.116;2023-02-04T03:31:54;100046.56;;;1.17;100.00
18509;BME280;9383;50.928;12.116;2023-02-04T03:34:21;100058.63;;;1.12;100.00
18509;BME280;9383;50.928;12.116;2023-02-04T03:36:48;100062.03;;;1.08;100.00
18509;BME280;9383;50.928;12.116;2023-02-04T03:39:15;100061.97;;;1.05;100.00
18509;BME280;9383;50.928;12.116;2023-02-04T03:41:42;100081.09;;;1.04;100.00
18509;BME280;9383;50.928;12.116;2023-02-04T03:44:08;100086.25;;;1.02;100.00
18509;BME280;9383;50.928;12.116;2023-02-04T03:46:35;100081.91;;;1.01;100.00
18509;BME280;9383;50.928;12.116;2023-02-04T03:49:01;100083.59;;;1.01;100.00
18509;BME280;9383;50.928;12.116;2023-02-04T03:51:27;100092.28;;;1.00;100.00
18509;BME280;9383;50.928;12.116;2023-02-04T03:53:54;100094.06;;;1.01;100.00
18509;BME280;9383;50.928;12.116;2023-02-04T03:56:21;100107.09;;;1.01;100.00
18509;BME280;9383;50.928;12.116;2023-02-04T03:58:47;100117.53;;;0.99;100.00
18509;BME280;9383;50.928;12.116;2023-02-04T04:01:15;100132.31;;;0.98;100.00
18509;BME280;9383;50.928;12.116;2023-02-04T04:03:41;100133.16;;;0.97;100.00
18509;BME280;9383;50.928;12.116;2023-02-04T04:06:08;100144.44;;;0.96;100.00
18509;BME280;9383;50.928;12.116;2023-02-04T04:08:36;100149.66;;;0.96;100.00
18509;BME280;9383;50.928;12.116;2023-02-04T04:11:03;100155.69;;;0.94;100.00
18509;BME280;9383;50.928;12.116;2023-02-04T04:13:30;100161.75;;;0.91;100.00
18509;BME280;9383;50.928;12.116;2023-02-04T04:15:57;100175.66;;;0.90;100.00
18509;BME280;9383;50.928;12.116;2023-02-04T04:18:23;100173.84;;;0.88;100.00
18509;BME280;9383;50.928;12.116;2023-02-04T04:20:50;100179.06;;;0.88;100.00
18509;BME280;9383;50.928;12.116;2023-02-04T04:23:16;100180.81;;;0.89;100.00
18509;BME280;9383;50.928;12.116;2023-02-04T04:25:45;100190.38;;;0.88;100.00
18509;BME280;9383;50.928;12.116;2023-02-04T04:28:12;100198.19;;;0.88;100.00
18509;BME280;9383;50.928;12.116;2023-02-04T04:30:38;100206.00;;;0.87;100.00
18509;BME280;9383;50.928;12.116;2023-02-04T04:33:05;100213.78;;;0.85;100.00
18509;BME280;9383;50.928;12.116;2023-02-04T04:35:31;100219.84;;;0.82;100.00
18509;BME280;9383;50.928;12.116;2023-02-04T04:37:59;100216.28;;;0.80;100.00
18509;BME280;9383;50.928;12.116;2023-02-04T04:40:27;100227.56;;;0.78;100.00
18509;BME280;9383;50.928;12.116;2023-02-04T04:42:54;100234.50;;;0.77;100.00
18509;BME280;9383;50.928;12.116;2023-02-04T04:45:21;100235.28;;;0.75;100.00
18509;BME280;9383;50.928;12.116;2023-02-04T04:47:47;100227.44;;;0.75;100.00
18509;BME280;9383;50.928;12.116;2023-02-04T04:50:14;100243.13;;;0.75;100.00
18509;BME280;9383;50.928;12.116;2023-02-04T04:52:41;100251.78;;;0.74;100.00
18509;BME280;9383;50.928;12.116;2023-02-04T04:55:08;100250.09;;;0.76;100.00
18509;BME280;9383;50.928;12.116;2023-02-04T04:57:34;100257.94;;;0.76;100.00
18509;BME280;9383;50.928;12.116;2023-02-04T05:00:01;100260.53;;;0.76;100.00
18509;BME280;9383;50.928;12.116;2023-02-04T05:02:28;100265.75;;;0.76;100.00
18509;BME280;9383;50.928;12.116;2023-02-04T05:04:54;100266.66;;;0.76;100.00
18509;BME280;9383;50.928;12.116;2023-02-04T05:07:21;100261.38;;;0.75;100.00
18509;BME280;9383;50.928;12.116;2023-02-04T05:09:47;100269.22;;;0.75;100.00
18509;BME280;9383;50.928;12.116;2023-02-04T05:12:14;100270.13;;;0.75;100.00
18509;BME280;9383;50.928;12.116;2023-02-04T05:14:41;100277.03;;;0.75;100.00
18509;BME280;9383;50.928;12.116;2023-02-04T05:17:07;100289.22;;;0.74;100.00
18509;BME280;9383;50.928;12.116;2023-02-04T05:19:33;100286.56;;;0.73;100.00
18509;BME280;9383;50.928;12.116;2023-02-04T05:22:00;100297.00;;;0.73;100.00
18509;BME280;9383;50.928;12.116;2023-02-04T05:24:27;100292.63;;;0.70;100.00
18509;BME280;9383;50.928;12.116;2023-02-04T05:26:53;100293.44;;;0.69;100.00
18509;BME280;9383;50.928;12.116;2023-02-04T05:29:20;100297.78;;;0.68;100.00
18509;BME280;9383;50.928;12.116;2023-02-04T05:31:46;100296.84;;;0.66;100.00
18509;BME280;9383;50.928;12.116;2023-02-04T05:34:13;100302.94;;;0.67;100.00
18509;BME280;9383;50.928;12.116;2023-02-04T05:36:39;100313.38;;;0.65;100.00
18509;BME280;9383;50.928;12.116;2023-02-04T05:39:06;100315.97;;;0.65;100.00
18509;BME280;9383;50.928;12.116;2023-02-04T05:41:32;100331.53;;;0.62;100.00
18509;BME280;9383;50.928;12.116;2023-02-04T05:43:59;100341.09;;;0.62;100.00
18509;BME280;9383;50.928;12.116;2023-02-04T05:46:25;100347.09;;;0.59;100.00
18509;BME280;9383;50.928;12.116;2023-02-04T05:48:52;100341.84;;;0.58;100.00
18509;BME280;9383;50.928;12.116;2023-02-04T05:51:18;100360.91;;;0.55;100.00
18509;BME280;9383;50.928;12.116;2023-02-04T05:53:45;100367.75;;;0.51;100.00
18509;BME280;9383;50.928;12.116;2023-02-04T05:56:11;100372.97;;;0.51;100.00
18509;BME280;9383;50.928;12.116;2023-02-04T05:58:38;100374.59;;;0.48;100.00
18509;BME280;9383;50.928;12.116;2023-02-04T06:01:04;100381.59;;;0.49;100.00
18509;BME280;9383;50.928;12.116;2023-02-04T06:03:31;100393.72;;;0.47;100.00
18509;BME280;9383;50.928;12.116;2023-02-04T06:05:58;100391.03;;;0.44;100.00
18509;BME280;9383;50.928;12.116;2023-02-04T06:08:25;100401.41;;;0.42;100.00
18509;BME280;9383;50.928;12.116;2023-02-04T06:10:51;100403.97;;;0.40;100.00
18509;BME280;9383;50.928;12.116;2023-02-04T06:13:18;100402.22;;;0.39;100.00
18509;BME280;9383;50.928;12.116;2023-02-04T06:15:44;100411.69;;;0.37;100.00
18509;BME280;9383;50.928;12.116;2023-02-04T06:18:23;100406.44;;;0.36;100.00
18509;BME280;9383;50.928;12.116;2023-02-04T06:20:49;100415.13;;;0.35;100.00
18509;BME280;9383;50.928;12.116;2023-02-04T06:23:16;100409.00;;;0.34;100.00
18509;BME280;9383;50.928;12.116;2023-02-04T06:25:42;100416.78;;;0.33;100.00
18509;BME280;9383;50.928;12.116;2023-02-04T06:28:09;100422.88;;;0.33;100.00
18509;BME280;9383;50.928;12.116;2023-02-04T06:30:36;100433.31;;;0.33;100.00
18509;BME280;9383;50.928;12.116;2023-02-04T06:33:02;100432.44;;;0.33;100.00
18509;BME280;9383;50.928;12.116;2023-02-04T06:35:29;100442.03;;;0.34;100.00
18509;BME280;9383;50.928;12.116;2023-02-04T06:38:04;100438.53;;;0.33;100.00
18509;BME280;9383;50.928;12.116;2023-02-04T06:40:31;100446.34;;;0.33;100.00
18509;BME280;9383;50.928;12.116;2023-02-04T06:42:57;100450.75;;;0.34;100.00
18509;BME280;9383;50.928;12.116;2023-02-04T06:45:24;100444.66;;;0.34;100.00
18509;BME280;9383;50.928;12.116;2023-02-04T06:47:51;100441.19;;;0.35;100.00
18509;BME280;9383;50.928;12.116;2023-02-04T06:50:18;100454.28;;;0.36;100.00
18509;BME280;9383;50.928;12.116;2023-02-04T06:52:45;100453.44;;;0.37;100.00
18509;BME280;9383;50.928;12.116;2023-02-04T06:55:16;100448.22;;;0.37;100.00
18509;BME280;9383;50.928;12.116;2023-02-04T06:57:43;100447.41;;;0.38;100.00
18509;BME280;9383;50.928;12.116;2023-02-04T07:00:11;100444.81;;;0.40;100.00
18509;BME280;9383;50.928;12.116;2023-02-04T07:02:37;100457.94;;;0.41;100.00
18509;BME280;9383;50.928;12.116;2023-02-04T07:05:05;100464.91;;;0.43;100.00
18509;BME280;9383;50.928;12.116;2023-02-04T07:07:32;100470.16;;;0.44;100.00
18509;BME280;9383;50.928;12.116;2023-02-04T07:09:58;100473.63;;;0.43;100.00
18509;BME280;9383;50.928;12.116;2023-02-04T07:12:27;100482.34;;;0.44;100.00
18509;BME280;9383;50.928;12.116;2023-02-04T07:14:53;100482.28;;;0.42;100.00
18509;BME280;9383;50.928;12.116;2023-02-04T07:17:20;100494.44;;;0.41;100.00
18509;BME280;9383;50.928;12.116;2023-02-04T07:19:46;100486.63;;;0.41;100.00
18509;BME280;9383;50.928;12.116;2023-02-04T07:22:13;100497.09;;;0.43;100.00
18509;BME280;9383;50.928;12.116;2023-02-04T07:24:40;100498.84;;;0.43;100.00
18509;BME280;9383;50.928;12.116;2023-02-04T07:27:06;100491.00;;;0.43;100.00
18509;BME280;9383;50.928;12.116;2023-02-04T07:29:33;100498.00;;;0.44;100.00
18509;BME280;9383;50.928;12.116;2023-02-04T07:31:59;100504.22;;;0.49;100.00
18509;BME280;9383;50.928;12.116;2023-02-04T07:34:26;100500.16;;;0.57;100.00
18509;BME280;9383;50.928;12.116;2023-02-04T07:36:52;100504.22;;;0.76;100.00
18509;BME280;9383;50.928;12.116;2023-02-04T07:39:19;100516.50;;;1.09;100.00
18509;BME280;9383;50.928;12.116;2023-02-04T07:41:46;100513.13;;;1.44;100.00
18509;BME280;9383;50.928;12.116;2023-02-04T07:44:12;100528.03;;;1.80;100.00
18509;BME280;9383;50.928;12.116;2023-02-04T07:46:39;100524.59;;;2.17;100.00
18509;BME280;9383;50.928;12.116;2023-02-04T07:49:05;100533.19;;;2.48;100.00
18509;BME280;9383;50.928;12.116;2023-02-04T07:51:32;100536.44;;;2.76;100.00
18509;BME280;9383;50.928;12.116;2023-02-04T07:53:58;100544.88;;;3.02;100.00
18509;BME280;9383;50.928;12.116;2023-02-04T07:56:25;100547.88;;;3.19;100.00
18509;BME280;9383;50.928;12.116;2023-02-04T07:58:51;100552.56;;;3.36;100.00
18509;BME280;9383;50.928;12.116;2023-02-04T08:01:18;100557.09;;;3.43;100.00
18509;BME280;9383;50.928;12.116;2023-02-04T08:03:44;100562.41;;;3.46;100.00
18509;BME280;9383;50.928;12.116;2023-02-04T08:06:11;100568.50;;;3.45;100.00
18509;BME280;9383;50.928;12.116;2023-02-04T08:08:37;100574.56;;;3.43;100.00
18509;BME280;9383;50.928;12.116;2023-02-04T08:11:05;100572.69;;;3.35;100.00
18509;BME280;9383;50.928;12.116;2023-02-04T08:13:31;100579.44;;;3.24;100.00
18509;BME280;9383;50.928;12.116;2023-02-04T08:15:58;100583.59;;;3.16;100.00
18509;BME280;9383;50.928;12.116;2023-02-04T08:18:24;100583.38;;;3.05;100.00
18509;BME280;9383;50.928;12.116;2023-02-04T08:20:51;100584.09;;;2.98;100.00
18509;BME280;9383;50.928;12.116;2023-02-04T08:23:17;100588.25;;;2.89;100.00
18509;BME280;9383;50.928;12.116;2023-02-04T08:25:44;100596.84;;;2.84;100.00
18509;BME280;9383;50.928;12.116;2023-02-04T08:28:11;100599.44;;;2.82;100.00
18509;BME280;9383;50.928;12.116;2023-02-04T08:30:38;100605.53;;;2.81;100.00
18509;BME280;9383;50.928;12.116;2023-02-04T08:33:04;100611.75;;;2.85;100.00
18509;BME280;9383;50.928;12.116;2023-02-04T08:35:31;100620.59;;;2.90;100.00
18509;BME280;9383;50.928;12.116;2023-02-04T08:37:57;100623.25;;;2.91;100.00
18509;BME280;9383;50.928;12.116;2023-02-04T08:40:24;100630.25;;;2.92;100.00
18509;BME280;9383;50.928;12.116;2023-02-04T08:42:50;100631.28;;;2.99;100.00
18509;BME280;9383;50.928;12.116;2023-02-04T08:45:17;100637.38;;;2.98;100.00
18509;BME280;9383;50.928;12.116;2023-02-04T08:47:43;100647.06;;;3.02;100.00
18509;BME280;9383;50.928;12.116;2023-02-04T08:50:11;100648.94;;;3.08;100.00
18509;BME280;9383;50.928;12.116;2023-02-04T08:52:37;100645.53;;;3.12;100.00
18509;BME280;9383;50.928;12.116;2023-02-04T08:55:04;100654.25;;;3.11;100.00
18509;BME280;9383;50.928;12.116;2023-02-04T08:57:31;100657.03;;;3.17;100.00
18509;BME280;9383;50.928;12.116;2023-02-04T09:00:00;100666.78;;;3.23;100.00
18509;BME280;9383;50.928;12.116;2023-02-04T09:02:27;100664.22;;;3.28;100.00
18509;BME280;9383;50.928;12.116;2023-02-04T09:04:53;100669.53;;;3.29;99.67
18509;BME280;9383;50.928;12.116;2023-02-04T09:07:20;100669.59;;;3.32;99.18
18509;BME280;9383;50.928;12.116;2023-02-04T09:09:46;100673.91;;;3.29;98.29
18509;BME280;9383;50.928;12.116;2023-02-04T09:12:13;100683.47;;;3.28;98.40
18509;BME280;9383;50.928;12.116;2023-02-04T09:14:40;100686.09;;;3.28;97.91
18509;BME280;9383;50.928;12.116;2023-02-04T09:17:06;100683.53;;;3.31;97.73
18509;BME280;9383;50.928;12.116;2023-02-04T09:19:33;100690.44;;;3.28;96.90
18509;BME280;9383;50.928;12.116;2023-02-04T09:21:59;100688.72;;;3.28;97.25
18509;BME280;9383;50.928;12.116;2023-02-04T09:24:26;100705.34;;;3.29;96.74
18509;BME280;9383;50.928;12.116;2023-02-04T09:26:52;100701.78;;;3.27;96.19
18509;BME280;9383;50.928;12.116;2023-02-04T09:29:19;100701.53;;;3.16;95.40
18509;BME280;9383;50.928;12.116;2023-02-04T09:31:45;100701.31;;;3.06;95.21
18509;BME280;9383;50.928;12.116;2023-02-04T09:34:12;100553.44;;;2.20;95.51
18509;BME280;9383;50.928;12.116;2023-02-04T09:36:39;100700.56;;;3.12;96.27
18509;BME280;9383;50.928;12.116;2023-02-04T09:39:06;100714.69;;;3.17;96.31
18509;BME280;9383;50.928;12.116;2023-02-04T09:41:35;100714.88;;;3.27;97.38
18509;BME280;9383;50.928;12.116;2023-02-04T09:44:04;100718.53;;;3.33;97.84
18509;BME280;9383;50.928;12.116;2023-02-04T09:46:33;100725.66;;;3.37;97.64
18509;BME280;9383;50.928;12.116;2023-02-04T09:49:00;100730.91;;;3.37;96.89
18509;BME280;9383;50.928;12.116;2023-02-04T09:51:32;100734.38;;;3.38;96.16
18509;BME280;9383;50.928;12.116;2023-02-04T09:54:12;100738.88;;;3.42;96.12
18509;BME280;9383;50.928;12.116;2023-02-04T09:56:39;100748.63;;;3.48;95.70
18509;BME280;9383;50.928;12.116;2023-02-04T09:59:20;100747.66;;;3.46;95.15
18509;BME280;9383;50.928;12.116;2023-02-04T10:01:56;100747.78;;;3.50;95.42
18509;BME280;9383;50.928;12.116;2023-02-04T10:04:23;100744.56;;;3.62;95.31
18509;BME280;9383;50.928;12.116;2023-02-04T10:06:50;100749.91;;;3.67;95.08
18509;BME280;9383;50.928;12.116;2023-02-04T10:09:17;100750.84;;;3.71;94.71
18509;BME280;9383;50.928;12.116;2023-02-04T10:11:46;100747.41;;;3.73;94.66
18509;BME280;9383;50.928;12.116;2023-02-04T10:14:15;100750.91;;;3.72;94.29
18509;BME280;9383;50.928;12.116;2023-02-04T10:16:47;100752.66;;;3.73;93.43
18509;BME280;9383;50.928;12.116;2023-02-04T10:19:17;100744.00;;;3.77;93.54
18509;BME280;9383;50.928;12.116;2023-02-04T10:21:45;100752.81;;;3.79;92.77
18509;BME280;9383;50.928;12.116;2023-02-04T10:24:22;100748.50;;;3.82;92.49
18509;BME280;9383;50.928;12.116;2023-02-04T10:26:54;100758.13;;;3.84;92.66
18509;BME280;9383;50.928;12.116;2023-02-04T10:29:31;100746.03;;;3.91;91.92
18509;BME280;9383;50.928;12.116;2023-02-04T10:31:58;100759.25;;;3.94;91.10
18509;BME280;9383;50.928;12.116;2023-02-04T10:34:34;100762.72;;;3.93;90.33
18509;BME280;9383;50.928;12.116;2023-02-04T10:37:13;100762.53;;;3.84;89.31
18509;BME280;9383;50.928;12.116;2023-02-04T10:39:43;100714.59;;;3.52;89.41
18509;BME280;9383;50.928;12.116;2023-02-04T10:42:28;100762.47;;;3.82;89.62
18509;BME280;9383;50.928;12.116;2023-02-04T10:44:55;100764.34;;;3.86;89.49
18509;BME280;9383;50.928;12.116;2023-02-04T10:47:24;100768.84;;;3.92;88.95
18509;BME280;9383;50.928;12.116;2023-02-04T10:49:59;100769.69;;;3.92;88.70
18509;BME280;9383;50.928;12.116;2023-02-04T10:52:39;100767.78;;;3.85;87.97
18509;BME280;9383;50.928;12.116;2023-02-04T10:55:14;100769.38;;;3.78;88.30
18509;BME280;9383;50.928;12.116;2023-02-04T10:57:43;100764.81;;;3.68;87.73
18509;BME280;9383;50.928;12.116;2023-02-04T11:00:22;100769.94;;;3.63;88.36
18509;BME280;9383;50.928;12.116;2023-02-04T11:03:05;100770.84;;;3.65;88.73
18509;BME280;9383;50.928;12.116;2023-02-04T11:05:35;100764.94;;;3.74;89.57
18509;BME280;9383;50.928;12.116;2023-02-04T11:08:03;100770.41;;;3.85;88.59
18509;BME280;9383;50.928;12.116;2023-02-04T11:10:43;100763.53;;;3.90;87.24
18509;BME280;9383;50.928;12.116;2023-02-04T11:13:21;100768.03;;;3.96;86.10
18509;BME280;9383;50.928;12.116;2023-02-04T11:15:54;100765.56;;;4.04;85.88
18509;BME280;9383;50.928;12.116;2023-02-04T11:18:31;100764.88;;;4.13;85.86
18509;BME280;9383;50.928;12.116;2023-02-04T11:22:02;100774.78;;;4.26;85.93
18509;BME280;9383;50.928;12.116;2023-02-04T11:26:45;100778.75;;;4.50;82.74
18509;BME280;9383;50.928;12.116;2023-02-04T11:39:37;100786.16;;;4.70;79.93
18509;BME280;9383;50.928;12.116;2023-02-04T11:42:23;100783.19;;;4.53;79.36
18509;BME280;9383;50.928;12.116;2023-02-04T11:45:07;100782.84;;;4.35;78.70
18509;BME280;9383;50.928;12.116;2023-02-04T11:47:38;100786.06;;;4.22;79.34
18509;BME280;9383;50.928;12.116;2023-02-04T11:50:24;100777.19;;;4.15;79.41
18509;BME280;9383;50.928;12.116;2023-02-04T11:52:54;100785.00;;;4.12;79.71
18509;BME280;9383;50.928;12.116;2023-02-04T11:55:21;100787.66;;;4.14;78.93
18509;BME280;9383;50.928;12.116;2023-02-04T11:57:51;100794.00;;;4.24;79.20
18509;BME280;9383;50.928;12.116;2023-02-04T12:00:21;100787.19;;;4.35;79.49
18509;BME280;9383;50.928;12.116;2023-02-04T12:02:54;100797.00;;;4.42;79.65
18509;BME280;9383;50.928;12.116;2023-02-04T12:05:21;100801.44;;;4.45;79.63
18509;BME280;9383;50.928;12.116;2023-02-04T12:07:47;100795.22;;;4.41;80.45
18509;BME280;9383;50.928;12.116;2023-02-04T12:10:26;100794.41;;;4.44;80.55
18509;BME280;9383;50.928;12.116;2023-02-04T12:12:54;100798.81;;;4.45;80.53
18509;BME280;9383;50.928;12.116;2023-02-04T12:15:31;100794.41;;;4.44;80.12
18509;BME280;9383;50.928;12.116;2023-02-04T12:18:07;100800.31;;;4.33;79.31
18509;BME280;9383;50.928;12.116;2023-02-04T12:20:34;100800.06;;;4.21;78.82
18509;BME280;9383;50.928;12.116;2023-02-04T12:23:01;100811.16;;;4.07;78.13
18509;BME280;9383;50.928;12.116;2023-02-04T12:25:28;100807.63;;;4.05;78.97
18509;BME280;9383;50.928;12.116;2023-02-04T12:28:01;100807.63;;;4.05;79.51
18509;BME280;9383;50.928;12.116;2023-02-04T12:30:27;100811.16;;;4.07;78.76
18509;BME280;9383;50.928;12.116;2023-02-04T12:32:54;100808.66;;;4.14;79.10
18509;BME280;9383;50.928;12.116;2023-02-04T12:35:20;100801.88;;;4.24;80.00
18509;BME280;9383;50.928;12.116;2023-02-04T12:37:47;100801.28;;;4.39;80.61
18509;BME280;9383;50.928;12.116;2023-02-04T12:40:15;100812.09;;;4.53;80.64
18509;BME280;9383;50.928;12.116;2023-02-04T12:42:43;100802.78;;;4.69;80.56
18509;BME280;9383;50.928;12.116;2023-02-04T12:45:10;100803.88;;;4.82;80.52
18509;BME280;9383;50.928;12.116;2023-02-04T12:47:39;100796.00;;;4.82;79.49
18509;BME280;9383;50.928;12.116;2023-02-04T12:50:09;100803.06;;;4.84;78.32
18509;BME280;9383;50.928;12.116;2023-02-04T12:52:39;100810.75;;;4.75;76.86
18509;BME280;9383;50.928;12.116;2023-02-04T12:55:07;100808.66;;;4.57;75.92
18509;BME280;9383;50.928;12.116;2023-02-04T12:57:35;100810.22;;;4.48;75.68
18509;BME280;9383;50.928;12.116;2023-02-04T13:00:02;100812.84;;;4.48;76.80
18509;BME280;9383;50.928;12.116;2023-02-04T13:02:40;100813.81;;;4.52;76.53
18509;BME280;9383;50.928;12.116;2023-02-04T13:05:08;100812.19;;;4.57;76.56
18509;BME280;9383;50.928;12.116;2023-02-04T13:07:34;100809.66;;;4.62;76.50
18509;BME280;9383;50.928;12.116;2023-02-04T13:10:02;100815.81;;;4.65;76.30
18509;BME280;9383;50.928;12.116;2023-02-04T13:12:29;100812.41;;;4.70;76.96
18509;BME280;9383;50.928;12.116;2023-02-04T13:14:55;100809.03;;;4.75;77.28